Terminal Aerodrome Forecast
Issued by NWS Albany, NY

Home | Current Version | Previous Version | Text Only | Print | Product List | Glossary On
Versions: 1 2 3 4 5 6 7 8 9 10 11 12 13 14 15 16 17 18 19 20 21 22
144
FTUS41 KALY 291737
TAFPOU
TAF
KPOU 291737Z 2918/3018 20007KT P6SM FEW040 SCT120 BKN250
     FM292300 17004KT P6SM BKN180
     FM300600 VRB03KT P6SM VCSH SCT015 OVC040
      TEMPO 3006/3010 3SM SHRA BR OVC015
     FM301000 VRB03KT P6SM VCSH BKN015 OVC040
      TEMPO 3010/3014 3SM SHRA BR SCT008 OVC015
     FM301500 22006KT 6SM -SHRA BR SCT007 OVC015=

USA.gov is the U.S. government's official web portal to all federal, state and local government web resources and services.